sensor_id;sensor_type;location;lat;lon;timestamp;pressure;altitude;pressure_sealevel;temperature;humidity
39897;BME280;25567;48.276;14.242;2022-12-07T00:01:31;98300.22;;;2.06;100.00
39897;BME280;25567;48.276;14.242;2022-12-07T00:03:59;98302.13;;;2.12;100.00
39897;BME280;25567;48.276;14.242;2022-12-07T00:06:33;98311.69;;;2.05;100.00
39897;BME280;25567;48.276;14.242;2022-12-07T00:09:00;98309.38;;;2.02;100.00
39897;BME280;25567;48.276;14.242;2022-12-07T00:11:27;98305.50;;;1.97;100.00
39897;BME280;25567;48.276;14.242;2022-12-07T00:13:57;98297.31;;;2.00;100.00
39897;BME280;25567;48.276;14.242;2022-12-07T00:16:27;98297.44;;;2.07;100.00
39897;BME280;25567;48.276;14.242;2022-12-07T00:18:55;98288.75;;;2.07;100.00
39897;BME280;25567;48.276;14.242;2022-12-07T00:21:24;98302.66;;;2.07;100.00
39897;BME280;25567;48.276;14.242;2022-12-07T00:23:52;98297.75;;;2.04;100.00
39897;BME280;25567;48.276;14.242;2022-12-07T00:26:28;98285.31;;;2.06;100.00
39897;BME280;25567;48.276;14.242;2022-12-07T00:28:58;98283.69;;;2.05;100.00
39897;BME280;25567;48.276;14.242;2022-12-07T00:31:26;98287.13;;;2.06;100.00
39897;BME280;25567;48.276;14.242;2022-12-07T00:33:53;98288.13;;;2.05;100.00
39897;BME280;25567;48.276;14.242;2022-12-07T00:36:22;98288.47;;;2.02;100.00
39897;BME280;25567;48.276;14.242;2022-12-07T00:38:53;98289.28;;;2.02;100.00
39897;BME280;25567;48.276;14.242;2022-12-07T00:41:23;98284.44;;;1.99;100.00
39897;BME280;25567;48.276;14.242;2022-12-07T00:43:51;98288.31;;;2.03;100.00
39897;BME280;25567;48.276;14.242;2022-12-07T00:46:19;98287.03;;;1.99;100.00
39897;BME280;25567;48.276;14.242;2022-12-07T00:48:47;98285.22;;;1.99;100.00
39897;BME280;25567;48.276;14.242;2022-12-07T00:51:16;98286.22;;;1.98;100.00
39897;BME280;25567;48.276;14.242;2022-12-07T00:53:43;98283.78;;;1.97;100.00
39897;BME280;25567;48.276;14.242;2022-12-07T00:56:13;98287.56;;;1.94;100.00
39897;BME280;25567;48.276;14.242;2022-12-07T00:58:41;98284.56;;;1.97;100.00
39897;BME280;25567;48.276;14.242;2022-12-07T01:01:09;98290.47;;;1.99;100.00
39897;BME280;25567;48.276;14.242;2022-12-07T01:03:37;98290.97;;;1.95;100.00
39897;BME280;25567;48.276;14.242;2022-12-07T01:06:05;98291.91;;;2.02;100.00
39897;BME280;25567;48.276;14.242;2022-12-07T01:08:32;98287.84;;;1.99;100.00
39897;BME280;25567;48.276;14.242;2022-12-07T01:11:00;98286.56;;;1.95;100.00
39897;BME280;25567;48.276;14.242;2022-12-07T01:13:28;98285.22;;;1.99;100.00
39897;BME280;25567;48.276;14.242;2022-12-07T01:15:58;98296.06;;;1.96;100.00
39897;BME280;25567;48.276;14.242;2022-12-07T01:18:27;98292.78;;;1.94;100.00
39897;BME280;25567;48.276;14.242;2022-12-07T01:23:26;98295.22;;;1.96;100.00
39897;BME280;25567;48.276;14.242;2022-12-07T01:25:56;98296.06;;;1.96;100.00
39897;BME280;25567;48.276;14.242;2022-12-07T01:28:24;98295.69;;;1.99;100.00
39897;BME280;25567;48.276;14.242;2022-12-07T01:31:00;98295.16;;;2.04;100.00
39897;BME280;25567;48.276;14.242;2022-12-07T01:33:30;98291.06;;;2.02;100.00
39897;BME280;25567;48.276;14.242;2022-12-07T01:36:02;98288.03;;;1.98;100.00
39897;BME280;25567;48.276;14.242;2022-12-07T01:38:30;98287.84;;;1.99;100.00
39897;BME280;25567;48.276;14.242;2022-12-07T01:40:58;98286.22;;;1.98;100.00
39897;BME280;25567;48.276;14.242;2022-12-07T01:43:27;98277.19;;;2.01;100.00
39897;BME280;25567;48.276;14.242;2022-12-07T01:45:55;98277.69;;;2.20;100.00
39897;BME280;25567;48.276;14.242;2022-12-07T01:48:27;98282.91;;;2.05;100.00
39897;BME280;25567;48.276;14.242;2022-12-07T01:50:56;98277.47;;;2.06;100.00
39897;BME280;25567;48.276;14.242;2022-12-07T01:53:29;98273.13;;;1.98;100.00
39897;BME280;25567;48.276;14.242;2022-12-07T01:55:57;98273.59;;;2.02;100.00
39897;BME280;25567;48.276;14.242;2022-12-07T01:58:25;98276.50;;;2.07;100.00
39897;BME280;25567;48.276;14.242;2022-12-07T02:00:52;98272.44;;;2.05;100.00
39897;BME280;25567;48.276;14.242;2022-12-07T02:05:48;98271.44;;;2.06;100.00
39897;BME280;25567;48.276;14.242;2022-12-07T02:08:16;98266.38;;;2.04;100.00
39897;BME280;25567;48.276;14.242;2022-12-07T02:10:44;98259.53;;;2.03;100.00
39897;BME280;25567;48.276;14.242;2022-12-07T02:15:41;98258.69;;;2.03;100.00
39897;BME280;25567;48.276;14.242;2022-12-07T02:18:18;98262.31;;;2.02;100.00
39897;BME280;25567;48.276;14.242;2022-12-07T02:31:39;98255.66;;;1.99;100.00
39897;BME280;25567;48.276;14.242;2022-12-07T02:34:21;98254.81;;;1.98;100.00
39897;BME280;25567;48.276;14.242;2022-12-07T02:36:56;98257.53;;;2.05;100.00
39897;BME280;25567;48.276;14.242;2022-12-07T02:39:40;98256.00;;;2.11;100.00
39897;BME280;25567;48.276;14.242;2022-12-07T02:42:14;98253.94;;;2.06;100.00
39897;BME280;25567;48.276;14.242;2022-12-07T02:44:43;98259.81;;;2.08;100.00
39897;BME280;25567;48.276;14.242;2022-12-07T02:47:14;98250.63;;;2.12;100.00
39897;BME280;25567;48.276;14.242;2022-12-07T02:49:45;98245.53;;;2.11;100.00
39897;BME280;25567;48.276;14.242;2022-12-07T02:52:12;98245.91;;;2.08;100.00
39897;BME280;25567;48.276;14.242;2022-12-07T02:54:40;98247.53;;;2.09;100.00
39897;BME280;25567;48.276;14.242;2022-12-07T02:57:31;98246.09;;;2.06;100.00
39897;BME280;25567;48.276;14.242;2022-12-07T03:00:05;98244.25;;;2.07;100.00
39897;BME280;25567;48.276;14.242;2022-12-07T03:08:23;98252.84;;;2.00;100.00
39897;BME280;25567;48.276;14.242;2022-12-07T03:10:55;98245.00;;;2.00;100.00
39897;BME280;25567;48.276;14.242;2022-12-07T03:13:28;98250.31;;;2.07;100.00
39897;BME280;25567;48.276;14.242;2022-12-07T03:21:33;98252.84;;;2.00;100.00
39897;BME280;25567;48.276;14.242;2022-12-07T03:24:06;98247.44;;;2.02;100.00
39897;BME280;25567;48.276;14.242;2022-12-07T03:26:38;98256.25;;;2.01;100.00
39897;BME280;25567;48.276;14.242;2022-12-07T03:29:12;98243.38;;;1.99;100.00
39897;BME280;25567;48.276;14.242;2022-12-07T03:31:43;98251.84;;;2.02;100.00
39897;BME280;25567;48.276;14.242;2022-12-07T03:37:16;98248.59;;;1.99;100.00
39897;BME280;25567;48.276;14.242;2022-12-07T03:40:08;98253.13;;;2.06;100.00
39897;BME280;25567;48.276;14.242;2022-12-07T03:42:36;98247.25;;;2.04;100.00
39897;BME280;25567;48.276;14.242;2022-12-07T03:45:04;98252.84;;;2.00;100.00
39897;BME280;25567;48.276;14.242;2022-12-07T03:47:34;98252.13;;;2.07;100.00
39897;BME280;25567;48.276;14.242;2022-12-07T03:50:14;98253.03;;;1.99;100.00
39897;BME280;25567;48.276;14.242;2022-12-07T03:52:55;98257.78;;;1.95;100.00
39897;BME280;25567;48.276;14.242;2022-12-07T03:55:28;98251.41;;;1.98;100.00
39897;BME280;25567;48.276;14.242;2022-12-07T03:58:01;98256.25;;;2.01;100.00
39897;BME280;25567;48.276;14.242;2022-12-07T04:00:30;98256.09;;;2.03;100.00
39897;BME280;25567;48.276;14.242;2022-12-07T04:02:57;98258.50;;;2.04;100.00
39897;BME280;25567;48.276;14.242;2022-12-07T04:05:23;98247.91;;;2.06;100.00
39897;BME280;25567;48.276;14.242;2022-12-07T04:07:50;98257.72;;;2.04;100.00
39897;BME280;25567;48.276;14.242;2022-12-07T04:10:17;98254.56;;;2.08;100.00
39897;BME280;25567;48.276;14.242;2022-12-07T04:12:44;98253.13;;;2.06;100.00
39897;BME280;25567;48.276;14.242;2022-12-07T04:15:12;98258.00;;;2.09;100.00
39897;BME280;25567;48.276;14.242;2022-12-07T04:17:39;98260.16;;;2.20;100.00
39897;BME280;25567;48.276;14.242;2022-12-07T04:20:06;98255.84;;;2.12;100.00
39897;BME280;25567;48.276;14.242;2022-12-07T04:22:33;98256.28;;;2.16;100.00
39897;BME280;25567;48.276;14.242;2022-12-07T04:25:00;98258.97;;;2.08;100.00
39897;BME280;25567;48.276;14.242;2022-12-07T04:27:27;98255.91;;;2.04;100.00
39897;BME280;25567;48.276;14.242;2022-12-07T04:29:54;98255.47;;;2.00;100.00
39897;BME280;25567;48.276;14.242;2022-12-07T04:32:22;98260.22;;;1.97;100.00
39897;BME280;25567;48.276;14.242;2022-12-07T04:34:49;98256.16;;;1.94;100.00
39897;BME280;25567;48.276;14.242;2022-12-07T04:37:21;98247.66;;;1.92;100.00
39897;BME280;25567;48.276;14.242;2022-12-07T04:39:48;98254.72;;;1.92;100.00
39897;BME280;25567;48.276;14.242;2022-12-07T04:42:15;98251.72;;;1.95;100.00
39897;BME280;25567;48.276;14.242;2022-12-07T04:44:42;98247.25;;;2.04;100.00
39897;BME280;25567;48.276;14.242;2022-12-07T04:47:08;98259.06;;;1.99;100.00
39897;BME280;25567;48.276;14.242;2022-12-07T04:49:35;98244.91;;;1.94;100.00
39897;BME280;25567;48.276;14.242;2022-12-07T04:52:02;98246.41;;;1.88;100.00
39897;BME280;25567;48.276;14.242;2022-12-07T04:54:29;98248.88;;;1.90;100.00
39897;BME280;25567;48.276;14.242;2022-12-07T04:56:56;98249.38;;;1.85;100.00
39897;BME280;25567;48.276;14.242;2022-12-07T04:59:22;98249.03;;;1.88;100.00
39897;BME280;25567;48.276;14.242;2022-12-07T05:01:49;98249.31;;;1.93;100.00
39897;BME280;25567;48.276;14.242;2022-12-07T05:04:16;98250.56;;;1.97;100.00
39897;BME280;25567;48.276;14.242;2022-12-07T05:06:44;98238.56;;;1.88;100.00
39897;BME280;25567;48.276;14.242;2022-12-07T05:09:11;98239.72;;;1.86;100.00
39897;BME280;25567;48.276;14.242;2022-12-07T05:11:38;98248.72;;;1.83;100.00
39897;BME280;25567;48.276;14.242;2022-12-07T05:14:08;98243.97;;;1.87;100.00
39897;BME280;25567;48.276;14.242;2022-12-07T05:16:35;98239.56;;;1.87;100.00
39897;BME280;25567;48.276;14.242;2022-12-07T05:19:03;98243.50;;;1.83;100.00
39897;BME280;25567;48.276;14.242;2022-12-07T05:21:30;98244.06;;;1.93;100.00
39897;BME280;25567;48.276;14.242;2022-12-07T05:23:56;98245.97;;;1.99;100.00
39897;BME280;25567;48.276;14.242;2022-12-07T05:26:23;98247.81;;;1.99;100.00
39897;BME280;25567;48.276;14.242;2022-12-07T05:28:54;98233.59;;;1.93;100.00
39897;BME280;25567;48.276;14.242;2022-12-07T05:31:22;98237.34;;;1.99;100.00
39897;BME280;25567;48.276;14.242;2022-12-07T05:33:50;98238.41;;;1.90;100.00
39897;BME280;25567;48.276;14.242;2022-12-07T05:36:17;98232.44;;;1.96;100.00
39897;BME280;25567;48.276;14.242;2022-12-07T05:38:44;98238.22;;;1.91;100.00
39897;BME280;25567;48.276;14.242;2022-12-07T05:41:14;98241.03;;;1.90;100.00
39897;BME280;25567;48.276;14.242;2022-12-07T05:43:56;98238.75;;;1.87;100.00
39897;BME280;25567;48.276;14.242;2022-12-07T05:46:23;98250.72;;;1.81;100.00
39897;BME280;25567;48.276;14.242;2022-12-07T05:48:50;98235.94;;;1.88;100.00
39897;BME280;25567;48.276;14.242;2022-12-07T05:51:19;98253.72;;;1.78;100.00
39897;BME280;25567;48.276;14.242;2022-12-07T05:53:47;98245.88;;;1.78;100.00
39897;BME280;25567;48.276;14.242;2022-12-07T05:56:14;98248.81;;;1.75;100.00
39897;BME280;25567;48.276;14.242;2022-12-07T05:58:49;98262.06;;;1.73;100.00
39897;BME280;25567;48.276;14.242;2022-12-07T06:01:40;98252.16;;;1.69;100.00
39897;BME280;25567;48.276;14.242;2022-12-07T06:04:07;98255.03;;;1.74;100.00
39897;BME280;25567;48.276;14.242;2022-12-07T06:06:34;98251.78;;;1.72;100.00
39897;BME280;25567;48.276;14.242;2022-12-07T06:09:02;98251.00;;;1.71;100.00
39897;BME280;25567;48.276;14.242;2022-12-07T06:11:29;98244.47;;;1.67;100.00
39897;BME280;25567;48.276;14.242;2022-12-07T06:14:11;98254.59;;;1.70;100.00
39897;BME280;25567;48.276;14.242;2022-12-07T06:16:38;98255.38;;;1.71;100.00
39897;BME280;25567;48.276;14.242;2022-12-07T06:19:04;98258.66;;;1.73;100.00
39897;BME280;25567;48.276;14.242;2022-12-07T06:21:31;98253.72;;;1.78;100.00
39897;BME280;25567;48.276;14.242;2022-12-07T06:23:58;98269.84;;;1.81;100.00
39897;BME280;25567;48.276;14.242;2022-12-07T06:26:25;98264.97;;;1.78;100.00
39897;BME280;25567;48.276;14.242;2022-12-07T06:28:51;98264.78;;;1.80;100.00
39897;BME280;25567;48.276;14.242;2022-12-07T06:31:18;98270.38;;;1.77;100.00
39897;BME280;25567;48.276;14.242;2022-12-07T06:33:45;98273.56;;;1.87;100.00
39897;BME280;25567;48.276;14.242;2022-12-07T06:36:15;98278.50;;;1.82;100.00
39897;BME280;25567;48.276;14.242;2022-12-07T06:38:42;98283.66;;;1.90;100.00
39897;BME280;25567;48.276;14.242;2022-12-07T06:41:08;98285.34;;;1.83;100.00
39897;BME280;25567;48.276;14.242;2022-12-07T06:43:35;98292.09;;;1.77;100.00
39897;BME280;25567;48.276;14.242;2022-12-07T06:46:03;98289.97;;;1.81;100.00
39897;BME280;25567;48.276;14.242;2022-12-07T06:48:30;98289.19;;;1.95;100.00
39897;BME280;25567;48.276;14.242;2022-12-07T06:51:00;98290.06;;;1.88;100.00
39897;BME280;25567;48.276;14.242;2022-12-07T06:53:27;98286.00;;;1.85;100.00
39897;BME280;25567;48.276;14.242;2022-12-07T06:55:53;98283.84;;;1.89;100.00
39897;BME280;25567;48.276;14.242;2022-12-07T06:58:20;98285.47;;;1.90;100.00
39897;BME280;25567;48.276;14.242;2022-12-07T07:00:48;98277.50;;;1.83;100.00
39897;BME280;25567;48.276;14.242;2022-12-07T07:03:16;98285.72;;;1.80;100.00
39897;BME280;25567;48.276;14.242;2022-12-07T07:05:43;98297.63;;;1.82;100.00
39897;BME280;25567;48.276;14.242;2022-12-07T07:08:11;98302.75;;;1.76;100.00
39897;BME280;25567;48.276;14.242;2022-12-07T07:10:48;98281.03;;;1.75;100.00
39897;BME280;25567;48.276;14.242;2022-12-07T07:13:15;98295.38;;;1.79;100.00
39897;BME280;25567;48.276;14.242;2022-12-07T07:15:41;98292.41;;;1.82;100.00
39897;BME280;25567;48.276;14.242;2022-12-07T07:18:08;98303.66;;;1.83;100.00
39897;BME280;25567;48.276;14.242;2022-12-07T07:20:37;98306.34;;;1.98;100.00
39897;BME280;25567;48.276;14.242;2022-12-07T07:23:04;98296.84;;;1.97;100.00
39897;BME280;25567;48.276;14.242;2022-12-07T07:25:31;98313.34;;;1.97;100.00
39897;BME280;25567;48.276;14.242;2022-12-07T07:27:58;98309.56;;;2.00;100.00
39897;BME280;25567;48.276;14.242;2022-12-07T07:30:26;98307.50;;;1.95;100.00
39897;BME280;25567;48.276;14.242;2022-12-07T07:32:57;98312.00;;;2.02;100.00
39897;BME280;25567;48.276;14.242;2022-12-07T07:35:25;98316.34;;;1.94;100.00
39897;BME280;25567;48.276;14.242;2022-12-07T07:37:52;98313.47;;;2.04;100.00
39897;BME280;25567;48.276;14.242;2022-12-07T07:40:18;98318.25;;;2.00;100.00
39897;BME280;25567;48.276;14.242;2022-12-07T07:42:47;98326.09;;;2.00;100.00
39897;BME280;25567;48.276;14.242;2022-12-07T07:45:15;98322.66;;;2.00;100.00
39897;BME280;25567;48.276;14.242;2022-12-07T07:47:41;98329.34;;;2.03;100.00
39897;BME280;25567;48.276;14.242;2022-12-07T07:50:08;98327.56;;;2.18;100.00
39897;BME280;25567;48.276;14.242;2022-12-07T07:52:35;98325.03;;;2.10;100.00
39897;BME280;25567;48.276;14.242;2022-12-07T07:55:02;98320.31;;;2.05;100.00
39897;BME280;25567;48.276;14.242;2022-12-07T07:57:29;98318.19;;;2.09;100.00
39897;BME280;25567;48.276;14.242;2022-12-07T07:59:56;98322.44;;;2.10;100.00
39897;BME280;25567;48.276;14.242;2022-12-07T08:02:22;98331.53;;;2.14;100.00
39897;BME280;25567;48.276;14.242;2022-12-07T08:04:49;98329.91;;;2.13;100.00
39897;BME280;25567;48.276;14.242;2022-12-07T08:07:17;98320.63;;;2.25;100.00
39897;BME280;25567;48.276;14.242;2022-12-07T08:09:44;98337.34;;;2.24;100.00
39897;BME280;25567;48.276;14.242;2022-12-07T08:12:11;98347.63;;;2.26;100.00
39897;BME280;25567;48.276;14.242;2022-12-07T08:14:37;98347.56;;;2.34;100.00
39897;BME280;25567;48.276;14.242;2022-12-07T08:17:04;98338.44;;;2.30;99.97
39897;BME280;25567;48.276;14.242;2022-12-07T08:19:31;98347.28;;;2.29;99.66
39897;BME280;25567;48.276;14.242;2022-12-07T08:21:58;98343.59;;;2.38;100.00
39897;BME280;25567;48.276;14.242;2022-12-07T08:24:24;98349.19;;;2.35;99.26
39897;BME280;25567;48.276;14.242;2022-12-07T08:26:51;98344.50;;;2.45;99.29
39897;BME280;25567;48.276;14.242;2022-12-07T08:29:18;98338.81;;;2.42;99.01
39897;BME280;25567;48.276;14.242;2022-12-07T08:31:45;98346.47;;;2.43;99.53
39897;BME280;25567;48.276;14.242;2022-12-07T08:34:12;98346.41;;;2.52;98.60
39897;BME280;25567;48.276;14.242;2022-12-07T08:36:39;98349.19;;;2.50;97.72
39897;BME280;25567;48.276;14.242;2022-12-07T08:39:06;98340.00;;;2.54;98.69
39897;BME280;25567;48.276;14.242;2022-12-07T08:41:52;98335.59;;;2.55;97.97
39897;BME280;25567;48.276;14.242;2022-12-07T08:44:19;98344.63;;;2.52;98.28
39897;BME280;25567;48.276;14.242;2022-12-07T08:46:50;98344.25;;;2.55;97.92
39897;BME280;25567;48.276;14.242;2022-12-07T08:49:24;98350.94;;;2.58;97.85
39897;BME280;25567;48.276;14.242;2022-12-07T08:51:52;98354.16;;;2.60;97.81
39897;BME280;25567;48.276;14.242;2022-12-07T08:54:19;98355.19;;;2.59;97.31
39897;BME280;25567;48.276;14.242;2022-12-07T08:56:47;98357.81;;;2.59;97.46
39897;BME280;25567;48.276;14.242;2022-12-07T08:59:19;98358.31;;;2.54;98.05
39897;BME280;25567;48.276;14.242;2022-12-07T09:01:46;98366.34;;;2.53;98.63
39897;BME280;25567;48.276;14.242;2022-12-07T09:04:13;98371.41;;;2.54;98.35
39897;BME280;25567;48.276;14.242;2022-12-07T09:06:42;98366.28;;;2.61;97.71
39897;BME280;25567;48.276;14.242;2022-12-07T09:09:09;98368.56;;;2.64;97.62
39897;BME280;25567;48.276;14.242;2022-12-07T09:11:38;98366.28;;;2.61;98.01
39897;BME280;25567;48.276;14.242;2022-12-07T09:14:05;98365.94;;;2.64;98.30
39897;BME280;25567;48.276;14.242;2022-12-07T09:16:32;98360.22;;;2.60;99.04
39897;BME280;25567;48.276;14.242;2022-12-07T09:18:59;98369.34;;;2.64;99.39
39897;BME280;25567;48.276;14.242;2022-12-07T09:21:25;98363.47;;;2.62;99.39
39897;BME280;25567;48.276;14.242;2022-12-07T09:23:52;98363.94;;;2.81;99.27
39897;BME280;25567;48.276;14.242;2022-12-07T09:26:19;98368.53;;;2.94;99.42
39897;BME280;25567;48.276;14.242;2022-12-07T09:28:46;98366.72;;;2.94;97.89
39897;BME280;25567;48.276;14.242;2022-12-07T09:31:12;98365.22;;;3.00;97.62
39897;BME280;25567;48.276;14.242;2022-12-07T09:33:59;98362.66;;;2.92;95.62
39897;BME280;25567;48.276;14.242;2022-12-07T09:36:27;98358.72;;;2.96;95.97
39897;BME280;25567;48.276;14.242;2022-12-07T09:38:55;98363.88;;;2.89;95.94
39897;BME280;25567;48.276;14.242;2022-12-07T09:41:24;98366.22;;;2.84;96.28
39897;BME280;25567;48.276;14.242;2022-12-07T09:44:00;98360.41;;;2.89;96.20
39897;BME280;25567;48.276;14.242;2022-12-07T09:46:34;98366.47;;;2.89;95.97
39897;BME280;25567;48.276;14.242;2022-12-07T09:49:03;98365.84;;;2.87;96.13
39897;BME280;25567;48.276;14.242;2022-12-07T09:51:31;98361.59;;;2.86;96.53
39897;BME280;25567;48.276;14.242;2022-12-07T09:53:58;98359.72;;;2.80;96.46
39897;BME280;25567;48.276;14.242;2022-12-07T09:56:28;98351.84;;;2.80;97.15
39897;BME280;25567;48.276;14.242;2022-12-07T09:59:02;98351.03;;;2.79;96.99
39897;BME280;25567;48.276;14.242;2022-12-07T10:01:32;98346.25;;;2.83;97.35
39897;BME280;25567;48.276;14.242;2022-12-07T10:04:09;98346.78;;;2.78;97.88
39897;BME280;25567;48.276;14.242;2022-12-07T10:06:37;98339.81;;;2.86;98.46
39897;BME280;25567;48.276;14.242;2022-12-07T10:09:13;98335.56;;;2.84;97.61
39897;BME280;25567;48.276;14.242;2022-12-07T10:12:05;98330.41;;;2.91;97.17
39897;BME280;25567;48.276;14.242;2022-12-07T10:14:35;98328.59;;;3.07;96.79
39897;BME280;25567;48.276;14.242;2022-12-07T10:17:33;98319.09;;;3.21;96.31
39897;BME280;25567;48.276;14.242;2022-12-07T10:20:20;98322.59;;;3.28;94.33
39897;BME280;25567;48.276;14.242;2022-12-07T10:25:27;98318.69;;;3.39;94.16
39897;BME280;25567;48.276;14.242;2022-12-07T10:30:25;98325.13;;;3.36;94.32
39897;BME280;25567;48.276;14.242;2022-12-07T10:32:51;98324.19;;;3.44;94.99
39897;BME280;25567;48.276;14.242;2022-12-07T10:35:23;98314.38;;;3.53;93.50
39897;BME280;25567;48.276;14.242;2022-12-07T10:37:54;98308.84;;;3.62;92.61
39897;BME280;25567;48.276;14.242;2022-12-07T10:40:27;98318.34;;;3.63;92.27
39897;BME280;25567;48.276;14.242;2022-12-07T10:48:53;98329.56;;;3.36;90.69
39897;BME280;25567;48.276;14.242;2022-12-07T10:54:50;98325.72;;;3.38;91.75
39897;BME280;25567;48.276;14.242;2022-12-07T10:56:56;98320.84;;;3.72;90.62
39897;BME280;25567;48.276;14.242;2022-12-07T10:59:44;98323.16;;;4.10;89.34
39897;BME280;25567;48.276;14.242;2022-12-07T11:02:25;98325.09;;;4.51;86.67
39897;BME280;25567;48.276;14.242;2022-12-07T11:05:14;98313.56;;;4.87;85.64
39897;BME280;25567;48.276;14.242;2022-12-07T11:08:03;98324.31;;;4.92;83.07
39897;BME280;25567;48.276;14.242;2022-12-07T11:13:25;98315.69;;;5.12;81.48
39897;BME280;25567;48.276;14.242;2022-12-07T11:16:04;98311.94;;;5.34;80.73
39897;BME280;25567;48.276;14.242;2022-12-07T11:21:26;98303.34;;;5.88;79.21
39897;BME280;25567;48.276;14.242;2022-12-07T11:24:02;98301.75;;;6.00;77.09
39897;BME280;25567;48.276;14.242;2022-12-07T11:32:00;98292.72;;;5.41;77.54
39897;BME280;25567;48.276;14.242;2022-12-07T11:34:36;98283.38;;;5.25;78.20
39897;BME280;25567;48.276;14.242;2022-12-07T11:37:11;98290.19;;;5.06;78.99
39897;BME280;25567;48.276;14.242;2022-12-07T11:39:46;98288.97;;;5.01;81.07
39897;BME280;25567;48.276;14.242;2022-12-07T11:42:22;98287.25;;;4.80;80.33
39897;BME280;25567;48.276;14.242;2022-12-07T11:47:28;98279.31;;;4.32;83.61
39897;BME280;25567;48.276;14.242;2022-12-07T11:55:27;98270.16;;;4.21;84.68
39897;BME280;25567;48.276;14.242;2022-12-07T11:58:08;98262.31;;;4.28;84.52
39897;BME280;25567;48.276;14.242;2022-12-07T12:00:41;98266.28;;;4.17;84.30
39897;BME280;25567;48.276;14.242;2022-12-07T12:03:14;98264.66;;;4.16;85.01
39897;BME280;25567;48.276;14.242;2022-12-07T12:05:42;98268.28;;;4.15;83.35
39897;BME280;25567;48.276;14.242;2022-12-07T12:16:45;98256.22;;;3.92;82.80
39897;BME280;25567;48.276;14.242;2022-12-07T12:22:10;98250.16;;;3.92;83.48
39897;BME280;25567;48.276;14.242;2022-12-07T12:24:40;98248.72;;;3.89;84.22
39897;BME280;25567;48.276;14.242;2022-12-07T12:27:15;98251.59;;;3.94;84.87
39897;BME280;25567;48.276;14.242;2022-12-07T12:29:43;98250.72;;;3.87;83.01
39897;BME280;25567;48.276;14.242;2022-12-07T12:32:20;98241.09;;;3.94;81.90
39897;BME280;25567;48.276;14.242;2022-12-07T12:37:47;98239.50;;;4.00;83.39
39897;BME280;25567;48.276;14.242;2022-12-07T12:45:21;98241.34;;;3.78;82.37
39897;BME280;25567;48.276;14.242;2022-12-07T12:48:36;98243.56;;;3.74;83.19
39897;BME280;25567;48.276;14.242;2022-12-07T12:54:03;98241.56;;;3.76;84.41
39897;BME280;25567;48.276;14.242;2022-12-07T12:56:40;98247.19;;;3.73;83.63
39897;BME280;25567;48.276;14.242;2022-12-07T12:59:26;98242.50;;;3.90;85.09
39897;BME280;25567;48.276;14.242;2022-12-07T13:01:56;98238.31;;;4.03;84.96
39897;BME280;25567;48.276;14.242;2022-12-07T13:04:24;98238.81;;;4.13;84.11
39897;BME280;25567;48.276;14.242;2022-12-07T13:06:52;98247.91;;;4.17;82.50
39897;BME280;25567;48.276;14.242;2022-12-07T13:09:24;98237.66;;;4.22;81.37
39897;BME280;25567;48.276;14.242;2022-12-07T13:12:00;98239.03;;;4.18;82.57
39897;BME280;25567;48.276;14.242;2022-12-07T13:17:10;98245.53;;;4.22;82.12
39897;BME280;25567;48.276;14.242;2022-12-07T13:22:40;98236.09;;;3.99;82.21
39897;BME280;25567;48.276;14.242;2022-12-07T13:25:22;98243.78;;;4.01;81.50
39897;BME280;25567;48.276;14.242;2022-12-07T13:28:15;98237.25;;;3.90;82.83
39897;BME280;25567;48.276;14.242;2022-12-07T13:30:47;98241.56;;;3.76;84.24
39897;BME280;25567;48.276;14.242;2022-12-07T13:33:18;98233.28;;;3.73;83.60
39897;BME280;25567;48.276;14.242;2022-12-07T13:35:46;98232.00;;;3.68;83.19
39897;BME280;25567;48.276;14.242;2022-12-07T13:38:22;98235.25;;;3.71;81.97
39897;BME280;25567;48.276;14.242;2022-12-07T13:46:14;98229.41;;;3.47;83.09
39897;BME280;25567;48.276;14.242;2022-12-07T13:48:47;98225.41;;;3.51;83.04
39897;BME280;25567;48.276;14.242;2022-12-07T13:51:25;98229.72;;;3.59;82.99
39897;BME280;25567;48.276;14.242;2022-12-07T13:53:55;98222.59;;;3.53;84.51
39897;BME280;25567;48.276;14.242;2022-12-07T13:56:31;98222.19;;;3.49;85.44
39897;BME280;25567;48.276;14.242;2022-12-07T13:58:59;98216.94;;;3.49;84.60
39897;BME280;25567;48.276;14.242;2022-12-07T14:01:26;98216.53;;;3.52;85.52
39897;BME280;25567;48.276;14.242;2022-12-07T14:03:54;98217.59;;;3.58;84.57
39897;BME280;25567;48.276;14.242;2022-12-07T14:06:24;98226.28;;;3.58;85.52
39897;BME280;25567;48.276;14.242;2022-12-07T14:09:19;98225.09;;;3.61;86.06
39897;BME280;25567;48.276;14.242;2022-12-07T14:11:47;98228.13;;;3.64;85.15
39897;BME280;25567;48.276;14.242;2022-12-07T14:14:27;98229.44;;;3.75;85.65
39897;BME280;25567;48.276;14.242;2022-12-07T14:17:14;98232.22;;;3.95;85.08
39897;BME280;25567;48.276;14.242;2022-12-07T14:19:52;98232.97;;;3.89;84.52
39897;BME280;25567;48.276;14.242;2022-12-07T14:25:00;98225.22;;;3.74;88.88
39897;BME280;25567;48.276;14.242;2022-12-07T14:27:32;98228.59;;;3.68;90.44
39897;BME280;25567;48.276;14.242;2022-12-07T14:30:02;98227.19;;;3.72;87.36
39897;BME280;25567;48.276;14.242;2022-12-07T14:32:30;98230.06;;;3.77;86.30
39897;BME280;25567;48.276;14.242;2022-12-07T14:34:59;98230.03;;;3.71;86.15
39897;BME280;25567;48.276;14.242;2022-12-07T14:37:28;98224.03;;;3.77;85.78
39897;BME280;25567;48.276;14.242;2022-12-07T14:39:58;98221.94;;;3.72;85.58
39897;BME280;25567;48.276;14.242;2022-12-07T14:42:27;98222.91;;;3.64;85.59
39897;BME280;25567;48.276;14.242;2022-12-07T14:44:56;98219.78;;;3.76;85.27
39897;BME280;25567;48.276;14.242;2022-12-07T14:47:25;98218.47;;;3.65;84.78
39897;BME280;25567;48.276;14.242;2022-12-07T14:50:15;98218.78;;;3.55;86.10
39897;BME280;25567;48.276;14.242;2022-12-07T14:52:49;98217.00;;;3.56;86.23
39897;BME280;25567;48.276;14.242;2022-12-07T14:55:38;98219.91;;;3.67;86.64